createdAt,value
2019-03-29T00:01:46.424Z,12.70
2019-03-29T00:06:51.178Z,12.60
2019-03-29T00:11:55.998Z,12.40
2019-03-29T00:17:00.747Z,12.50
2019-03-29T00:22:05.507Z,12.60
2019-03-29T00:27:10.336Z,12.50
2019-03-29T00:32:15.080Z,12.50
2019-03-29T00:37:19.886Z,12.50
2019-03-29T00:42:24.694Z,12.60
2019-03-29T00:47:30.042Z,12.60
2019-03-29T00:52:34.994Z,12.30
2019-03-29T00:57:39.761Z,12.10
2019-03-29T01:02:44.933Z,12.00
2019-03-29T01:07:50.098Z,12.20
2019-03-29T01:12:55.000Z,12.20
2019-03-29T01:17:59.819Z,12.30
2019-03-29T01:23:04.728Z,12.20
2019-03-29T01:28:09.523Z,12.40
2019-03-29T01:33:14.348Z,12.40
2019-03-29T01:38:22.138Z,12.30
2019-03-29T01:43:25.579Z,12.30
2019-03-29T01:48:30.277Z,12.30
2019-03-29T01:53:35.039Z,12.20
2019-03-29T01:58:39.859Z,12.00
2019-03-29T02:03:44.574Z,12.20
2019-03-29T02:08:49.329Z,12.20
2019-03-29T02:13:54.158Z,12.20
2019-03-29T02:18:58.978Z,12.30
2019-03-29T02:24:04.098Z,12.20
2019-03-29T02:29:08.842Z,12.30
2019-03-29T02:34:15.702Z,12.40
2019-03-29T02:39:21.073Z,12.40
2019-03-29T02:44:25.900Z,12.40
2019-03-29T02:49:30.695Z,12.40
2019-03-29T02:54:35.429Z,12.40
2019-03-29T02:59:40.182Z,12.40
2019-03-29T03:04:44.942Z,12.40
2019-03-29T03:09:49.693Z,12.40
2019-03-29T03:14:54.485Z,12.40
2019-03-29T03:19:59.234Z,12.40
2019-03-29T03:25:04.191Z,12.40
2019-03-29T03:30:10.775Z,12.30
2019-03-29T03:35:17.545Z,11.90
2019-03-29T03:40:22.355Z,11.60
2019-03-29T03:45:27.500Z,11.50
2019-03-29T03:50:42.344Z,11.30
2019-03-29T03:55:47.137Z,11.30
2019-03-29T04:00:56.917Z,11.30
2019-03-29T04:06:01.842Z,11.30
2019-03-29T04:11:06.578Z,11.70
2019-03-29T04:16:11.305Z,11.70
2019-03-29T04:21:16.140Z,11.60
2019-03-29T04:26:20.876Z,11.70
2019-03-29T04:31:25.723Z,11.60
2019-03-29T04:36:30.540Z,11.60
2019-03-29T04:41:35.276Z,11.60
2019-03-29T04:46:40.050Z,11.60
2019-03-29T04:51:44.925Z,11.60
2019-03-29T04:56:49.642Z,11.60
2019-03-29T05:01:54.375Z,11.40
2019-03-29T05:06:59.111Z,11.20
2019-03-29T05:12:03.855Z,11.20
2019-03-29T05:17:08.621Z,11.20
2019-03-29T05:22:13.354Z,10.90
2019-03-29T05:27:18.099Z,11.00
2019-03-29T05:32:24.959Z,11.10
2019-03-29T05:37:29.707Z,11.10
2019-03-29T05:42:34.575Z,11.20
2019-03-29T05:47:39.373Z,11.20
2019-03-29T05:52:44.103Z,11.00
2019-03-29T05:57:48.854Z,11.20
2019-03-29T06:02:53.585Z,11.30
2019-03-29T06:07:58.401Z,11.10
2019-03-29T06:13:03.091Z,11.40
2019-03-29T06:18:07.904Z,11.60
2019-03-29T06:23:12.665Z,12.00
2019-03-29T06:28:17.511Z,12.10
2019-03-29T06:33:23.173Z,12.30
2019-03-29T06:38:29.819Z,12.70
2019-03-29T06:43:34.585Z,13.10
2019-03-29T06:48:39.349Z,13.60
2019-03-29T06:53:47.471Z,13.90
2019-03-29T06:58:52.417Z,14.10
2019-03-29T07:03:57.172Z,14.50
2019-03-29T07:09:01.939Z,15.40
2019-03-29T07:14:06.714Z,16.00
2019-03-29T07:19:11.465Z,16.20
2019-03-29T07:24:16.190Z,17.10
2019-03-29T07:29:21.006Z,18.00
2019-03-29T07:34:25.736Z,19.20
2019-03-29T07:39:30.454Z,21.50
2019-03-29T07:44:35.333Z,23.00
2019-03-29T07:54:44.165Z,24.70
2019-03-29T07:59:50.490Z,25.00
2019-03-29T08:04:55.503Z,26.70
2019-03-29T08:10:03.306Z,27.80
2019-03-29T08:20:38.028Z,28.10
2019-03-29T08:25:19.272Z,29.00
2019-03-29T08:30:24.037Z,29.70
2019-03-29T08:35:28.787Z,29.10
2019-03-29T08:40:34.702Z,28.40
2019-03-29T08:45:39.467Z,26.40
2019-03-29T08:50:44.287Z,26.90
2019-03-29T08:55:49.116Z,26.60
2019-03-29T09:05:58.000Z,28.10
2019-03-29T09:11:03.078Z,27.70
2019-03-29T09:16:07.927Z,27.40
2019-03-29T09:21:12.700Z,27.20
2019-03-29T09:26:17.494Z,27.00
2019-03-29T09:31:22.240Z,28.00
2019-03-29T09:36:26.993Z,27.80
2019-03-29T09:41:31.783Z,26.40
2019-03-29T09:46:36.544Z,25.50
2019-03-29T09:51:41.358Z,27.50
2019-03-29T09:56:48.325Z,27.70
2019-03-29T10:01:54.263Z,26.20
2019-03-29T10:06:59.471Z,24.70
2019-03-29T10:12:04.222Z,26.40
2019-03-29T10:22:13.071Z,27.40
2019-03-29T10:27:19.183Z,27.30
2019-03-29T10:32:24.105Z,25.80
2019-03-29T10:37:28.960Z,25.60
2019-03-29T10:42:33.691Z,25.80
2019-03-29T10:47:43.592Z,27.00
2019-03-29T10:52:45.469Z,26.70
2019-03-29T10:57:50.328Z,26.90
2019-03-29T11:02:55.196Z,27.00
2019-03-29T11:08:00.899Z,27.20
2019-03-29T11:13:13.365Z,27.50
2019-03-29T11:18:12.490Z,27.70
2019-03-29T11:23:17.306Z,27.90
2019-03-29T11:28:22.172Z,27.00
2019-03-29T11:33:26.999Z,26.70
2019-03-29T11:38:31.981Z,27.30
2019-03-29T11:43:36.787Z,26.60
2019-03-29T11:48:41.604Z,26.40
2019-03-29T11:53:50.712Z,26.30
2019-03-29T12:03:58.299Z,26.40
2019-03-29T12:09:04.522Z,26.40
2019-03-29T12:14:09.446Z,26.60
2019-03-29T12:19:14.204Z,27.90
2019-03-29T12:24:19.096Z,27.90
2019-03-29T12:29:24.023Z,27.20
2019-03-29T12:34:28.834Z,25.90
2019-03-29T12:39:33.594Z,26.10
2019-03-29T12:44:38.304Z,27.40
2019-03-29T12:49:43.030Z,28.30
2019-03-29T12:54:47.769Z,27.20
2019-03-29T12:59:52.517Z,25.80
2019-03-29T13:04:57.349Z,25.90
2019-03-29T13:10:02.369Z,26.50
2019-03-29T13:15:07.567Z,26.90
2019-03-29T13:20:13.110Z,26.40
2019-03-29T13:25:18.083Z,26.90
2019-03-29T13:30:23.003Z,26.80
2019-03-29T13:35:27.926Z,26.70
2019-03-29T13:40:32.692Z,26.70
2019-03-29T13:45:37.432Z,27.00
2019-03-29T13:50:42.178Z,26.30
2019-03-29T13:55:47.000Z,27.20
2019-03-29T14:00:51.817Z,29.40
2019-03-29T14:05:56.699Z,30.80
2019-03-29T14:26:16.131Z,32.30
2019-03-29T14:31:20.287Z,32.30
2019-03-29T14:36:26.398Z,33.80
2019-03-29T14:41:32.222Z,34.10
2019-03-29T14:46:37.091Z,35.10
2019-03-29T14:51:41.839Z,33.80
2019-03-29T14:56:46.609Z,33.70
2019-03-29T15:01:51.360Z,33.20
2019-03-29T15:06:56.401Z,33.80
2019-03-29T15:12:01.142Z,33.80
2019-03-29T15:22:09.996Z,35.00
2019-03-29T15:27:14.852Z,35.00
2019-03-29T15:32:19.696Z,33.40
2019-03-29T15:37:24.477Z,33.30
2019-03-29T15:42:29.339Z,33.30
2019-03-29T15:47:34.054Z,31.50
2019-03-29T15:52:38.828Z,30.50
2019-03-29T15:57:43.637Z,28.90
2019-03-29T16:02:48.352Z,25.80
2019-03-29T16:07:53.183Z,24.30
2019-03-29T16:12:59.479Z,23.60
2019-03-29T16:18:04.218Z,23.00
2019-03-29T16:23:10.015Z,21.90
2019-03-29T16:33:19.060Z,20.80
2019-03-29T16:38:25.061Z,20.40
2019-03-29T16:43:31.228Z,20.00
2019-03-29T16:48:37.146Z,19.70
2019-03-29T16:53:41.973Z,19.50
2019-03-29T16:58:47.705Z,19.30
2019-03-29T17:03:52.875Z,19.20
2019-03-29T17:08:57.761Z,19.00
2019-03-29T17:14:02.619Z,19.00
2019-03-29T17:19:08.454Z,18.90
2019-03-29T17:24:13.261Z,18.70
2019-03-29T17:29:18.039Z,18.70
2019-03-29T17:34:23.553Z,18.60
2019-03-29T17:39:28.327Z,18.50
2019-03-29T17:44:33.837Z,18.40
2019-03-29T17:49:38.631Z,18.30
2019-03-29T17:54:43.483Z,18.10
2019-03-29T17:59:48.235Z,18.10
2019-03-29T18:04:53.077Z,17.90
2019-03-29T18:10:08.640Z,17.60
2019-03-29T18:15:13.776Z,17.40
2019-03-29T18:20:18.660Z,17.20
2019-03-29T18:25:23.490Z,17.00
2019-03-29T18:30:43.963Z,16.80
2019-03-29T18:35:48.833Z,16.80
2019-03-29T18:40:53.674Z,16.70
2019-03-29T18:45:58.396Z,16.60
2019-03-29T18:51:03.228Z,16.60
2019-03-29T18:56:08.050Z,16.60
2019-03-29T19:01:12.806Z,16.40
2019-03-29T19:06:17.650Z,16.30
2019-03-29T19:11:22.502Z,16.10
2019-03-29T19:16:27.420Z,16.00
2019-03-29T19:21:32.178Z,15.80
2019-03-29T19:26:36.948Z,15.60
2019-03-29T19:31:41.767Z,15.40
2019-03-29T19:36:46.520Z,15.20
2019-03-29T19:41:51.280Z,15.10
2019-03-29T19:46:56.205Z,15.00
2019-03-29T19:52:00.996Z,14.60
2019-03-29T19:57:05.769Z,14.60
2019-03-29T20:02:10.614Z,14.50
2019-03-29T20:07:15.369Z,14.30
2019-03-29T20:12:20.274Z,14.40
2019-03-29T20:17:27.692Z,14.20
2019-03-29T20:22:31.693Z,14.10
2019-03-29T20:27:36.498Z,14.10
2019-03-29T20:32:41.362Z,14.00
2019-03-29T20:37:46.257Z,14.10
2019-03-29T20:42:51.162Z,14.00
2019-03-29T20:47:55.929Z,14.00
2019-03-29T20:53:00.680Z,13.80
2019-03-29T20:58:05.473Z,13.70
2019-03-29T21:03:10.323Z,13.60
2019-03-29T21:08:16.473Z,13.60
2019-03-29T21:13:21.329Z,13.20
2019-03-29T21:18:26.078Z,13.10
2019-03-29T21:23:32.348Z,13.00
2019-03-29T21:28:37.126Z,13.10
2019-03-29T21:33:41.929Z,12.90
2019-03-29T21:38:46.814Z,12.90
2019-03-29T21:43:51.641Z,12.90
2019-03-29T21:48:56.426Z,13.00
2019-03-29T21:54:01.292Z,12.80
2019-03-29T21:59:06.088Z,12.80
2019-03-29T22:04:10.852Z,13.00
2019-03-29T22:09:15.671Z,13.00
2019-03-29T22:14:20.427Z,12.90
2019-03-29T22:19:25.163Z,12.90
2019-03-29T22:24:29.915Z,12.80
2019-03-29T22:29:34.678Z,12.90
2019-03-29T22:34:39.461Z,12.90
2019-03-29T22:39:44.225Z,12.80
2019-03-29T22:44:49.030Z,12.80
2019-03-29T22:49:53.767Z,12.70
2019-03-29T22:54:58.552Z,12.70
2019-03-29T23:00:03.418Z,12.50
2019-03-29T23:05:08.709Z,12.30
2019-03-29T23:10:13.452Z,12.10
2019-03-29T23:15:18.208Z,12.10
2019-03-29T23:20:22.981Z,12.30
2019-03-29T23:25:27.783Z,12.20
2019-03-29T23:30:32.554Z,12.10
2019-03-29T23:35:37.369Z,11.90
2019-03-29T23:40:42.133Z,11.70
2019-03-29T23:45:47.167Z,11.50
2019-03-29T23:50:52.031Z,11.40
2019-03-29T23:55:56.812Z,11.50
